Time;durP1;ratioP1;P1;durP2;ratioP2;P2;SDS_P1;SDS_P2;PMS_P1;PMS_P2;Temp;Humidity;BMP_temperature;BMP_pressure;BME280_temperature;BME280_humidity;BME280_pressure;Samples;Min_cycle;Max_cycle;Signal;HPM_P1;HPM_P2
2023/11/11 00:00:02;;;;;;;11.40;6.40;;;;;;;-128.00;-1.00;-1.00;106991;1252;1002412;-57
2023/11/11 00:02:30;;;;;;;7.30;4.00;;;;;;;-128.00;-1.00;-1.00;106667;1251;1012722;-58
2023/11/11 00:04:58;;;;;;;8.30;5.00;;;;;;;-128.00;-1.00;-1.00;106646;1259;1002245;-59
2023/11/11 00:07:26;;;;;;;5.10;4.30;;;;;;;-128.00;-1.00;-1.00;106956;1254;1002430;-58
2023/11/11 00:09:53;;;;;;;5.60;4.80;;;;;;;-128.00;-1.00;-1.00;106910;1251;1002144;-61
2023/11/11 00:12:21;;;;;;;9.30;5.00;;;;;;;-128.00;-1.00;-1.00;106685;1251;1002602;-62
2023/11/11 00:14:50;;;;;;;10.40;5.40;;;;;;;-128.00;-1.00;-1.00;107000;1251;1002356;-61
2023/11/11 00:17:18;;;;;;;5.80;4.60;;;;;;;-128.00;-1.00;-1.00;106872;1254;1012456;-59
2023/11/11 00:19:47;;;;;;;8.70;5.20;;;;;;;-128.00;-1.00;-1.00;106588;1253;1002627;-61
2023/11/11 00:22:14;;;;;;;10.30;5.50;;;;;;;-128.00;-1.00;-1.00;106593;1253;1010723;-59
2023/11/11 00:24:44;;;;;;;7.20;5.10;;;;;;;-128.00;-1.00;-1.00;106974;1251;1002967;-61
2023/11/11 00:27:14;;;;;;;5.00;4.50;;;;;;;-128.00;-1.00;-1.00;106973;1251;1013389;-61
2023/11/11 00:29:41;;;;;;;7.40;5.70;;;;;;;-128.00;-1.00;-1.00;106785;1258;1012625;-61
2023/11/11 00:32:09;;;;;;;6.40;4.60;;;;;;;-128.00;-1.00;-1.00;106956;1251;1002130;-59
2023/11/11 00:34:39;;;;;;;5.60;5.00;;;;;;;-128.00;-1.00;-1.00;106757;1251;1002445;-60
2023/11/11 00:37:06;;;;;;;7.70;4.80;;;;;;;-128.00;-1.00;-1.00;106542;1254;1012169;-61
2023/11/11 00:39:34;;;;;;;7.10;4.50;;;;;;;-128.00;-1.00;-1.00;106944;1252;1002348;-61
2023/11/11 00:42:02;;;;;;;7.00;4.80;;;;;;;-128.00;-1.00;-1.00;106890;1256;1002088;-59
2023/11/11 00:44:30;;;;;;;7.80;5.20;;;;;;;-128.00;-1.00;-1.00;106596;1254;1002747;-61
2023/11/11 00:46:57;;;;;;;7.20;3.90;;;;;;;-128.00;-1.00;-1.00;106571;1254;1009468;-58
2023/11/11 00:49:25;;;;;;;5.90;5.30;;;;;;;-128.00;-1.00;-1.00;106966;1251;1002345;-60
2023/11/11 00:51:55;;;;;;;10.20;5.70;;;;;;;-128.00;-1.00;-1.00;106935;1253;1003865;-59
2023/11/11 00:54:22;;;;;;;6.30;4.70;;;;;;;-128.00;-1.00;-1.00;106600;1254;1012521;-60
2023/11/11 00:56:51;;;;;;;4.10;3.70;;;;;;;-128.00;-1.00;-1.00;106574;1254;1002541;-61
2023/11/11 00:59:19;;;;;;;5.20;4.50;;;;;;;-128.00;-1.00;-1.00;106674;1253;1010013;-58
2023/11/11 01:01:46;;;;;;;5.20;4.20;;;;;;;-128.00;-1.00;-1.00;106651;1254;1002240;-59
2023/11/11 01:04:14;;;;;;;4.50;3.20;;;;;;;-128.00;-1.00;-1.00;106618;1254;1002818;-59
2023/11/11 01:06:41;;;;;;;4.80;3.80;;;;;;;-128.00;-1.00;-1.00;106514;1254;1002395;-60
2023/11/11 01:09:13;;;;;;;4.70;4.20;;;;;;;-128.00;-1.00;-1.00;106626;1254;1001883;-58
2023/11/11 01:11:41;;;;;;;8.40;4.70;;;;;;;-128.00;-1.00;-1.00;106634;1259;1009383;-57
2023/11/11 01:14:09;;;;;;;4.10;3.70;;;;;;;-128.00;-1.00;-1.00;106660;1254;1010978;-58
2023/11/11 01:16:36;;;;;;;5.80;4.60;;;;;;;-128.00;-1.00;-1.00;106644;1254;1002493;-57
2023/11/11 01:19:04;;;;;;;5.20;4.20;;;;;;;-128.00;-1.00;-1.00;106663;1253;1002462;-58
2023/11/11 01:21:32;;;;;;;6.70;4.60;;;;;;;-128.00;-1.00;-1.00;106452;1253;1002390;-59
2023/11/11 01:24:00;;;;;;;5.90;4.30;;;;;;;-128.00;-1.00;-1.00;106605;1254;1002073;-61
2023/11/11 01:26:27;;;;;;;6.40;4.80;;;;;;;-128.00;-1.00;-1.00;106586;1253;1001815;-59
2023/11/11 01:28:55;;;;;;;8.10;4.60;;;;;;;-128.00;-1.00;-1.00;106639;1264;1001984;-61
2023/11/11 01:31:23;;;;;;;4.60;4.10;;;;;;;-128.00;-1.00;-1.00;106668;1253;1002240;-61
2023/11/11 01:33:51;;;;;;;6.50;4.40;;;;;;;-128.00;-1.00;-1.00;106934;1254;1013180;-60
2023/11/11 01:36:19;;;;;;;6.20;4.40;;;;;;;-128.00;-1.00;-1.00;106762;1254;1002041;-62
2023/11/11 01:38:48;;;;;;;6.30;4.40;;;;;;;-128.00;-1.00;-1.00;106500;1254;1009942;-59
2023/11/11 01:41:15;;;;;;;6.20;4.50;;;;;;;-128.00;-1.00;-1.00;106567;1254;1002224;-58
2023/11/11 01:43:43;;;;;;;4.60;4.10;;;;;;;-128.00;-1.00;-1.00;106516;1260;1002383;-58
2023/11/11 01:46:10;;;;;;;5.50;4.90;;;;;;;-128.00;-1.00;-1.00;106569;1254;1002424;-58
2023/11/11 01:48:39;;;;;;;5.50;4.10;;;;;;;-128.00;-1.00;-1.00;106493;1259;1002264;-58
2023/11/11 01:51:06;;;;;;;4.10;3.70;;;;;;;-128.00;-1.00;-1.00;106437;1254;1010237;-58
2023/11/11 01:53:34;;;;;;;10.20;5.80;;;;;;;-128.00;-1.00;-1.00;106552;1254;1002691;-58
2023/11/11 01:56:01;;;;;;;7.70;4.00;;;;;;;-128.00;-1.00;-1.00;106528;1254;1002078;-58
2023/11/11 01:58:30;;;;;;;4.90;3.90;;;;;;;-128.00;-1.00;-1.00;106548;1254;1002680;-58
2023/11/11 02:00:58;;;;;;;5.30;4.50;;;;;;;-128.00;-1.00;-1.00;106373;1257;1010651;-59
2023/11/11 02:03:26;;;;;;;8.50;5.40;;;;;;;-128.00;-1.00;-1.00;106365;1257;1011167;-59
2023/11/11 02:05:53;;;;;;;7.60;5.50;;;;;;;-128.00;-1.00;-1.00;106493;1257;1002290;-60
2023/11/11 02:08:24;;;;;;;5.80;5.00;;;;;;;-128.00;-1.00;-1.00;106438;1254;1002358;-58
2023/11/11 02:10:52;;;;;;;7.70;5.10;;;;;;;-128.00;-1.00;-1.00;106710;1253;1013277;-58
2023/11/11 02:13:21;;;;;;;;;;;;;;;-128.00;-1.00;-1.00;106734;1254;1010314;-58
2023/11/11 02:15:49;;;;;;;6.30;4.80;;;;;;;-128.00;-1.00;-1.00;106783;1253;1010403;-59
2023/11/11 02:18:16;;;;;;;10.30;5.30;;;;;;;-128.00;-1.00;-1.00;106766;1254;1002301;-60
2023/11/11 02:20:44;;;;;;;7.00;5.00;;;;;;;-128.00;-1.00;-1.00;106429;1256;1002284;-61
2023/11/11 02:23:12;;;;;;;6.10;4.90;;;;;;;-128.00;-1.00;-1.00;106439;1257;1002185;-61
2023/11/11 02:25:39;;;;;;;7.60;5.70;;;;;;;-128.00;-1.00;-1.00;106486;1257;1002602;-59
2023/11/11 02:28:07;;;;;;;7.70;6.20;;;;;;;-128.00;-1.00;-1.00;106558;1256;1002579;-60
2023/11/11 02:30:34;;;;;;;8.10;5.70;;;;;;;-128.00;-1.00;-1.00;106601;1257;1002800;-58
2023/11/11 02:33:02;;;;;;;6.80;5.80;;;;;;;-128.00;-1.00;-1.00;106476;1254;1002638;-58
2023/11/11 02:35:30;;;;;;;6.00;4.10;;;;;;;-128.00;-1.00;-1.00;106496;1253;1002266;-58
2023/11/11 02:38:02;;;;;;;7.60;4.70;;;;;;;-128.00;-1.00;-1.00;106764;1254;1010654;-58
2023/11/11 02:40:29;;;;;;;9.50;5.10;;;;;;;-128.00;-1.00;-1.00;106557;1254;1002585;-59
2023/11/11 02:42:57;;;;;;;12.60;5.40;;;;;;;-128.00;-1.00;-1.00;106828;1254;1002252;-61
2023/11/11 02:45:25;;;;;;;6.50;5.10;;;;;;;-128.00;-1.00;-1.00;106759;1254;1001770;-59
2023/11/11 02:47:53;;;;;;;8.30;5.90;;;;;;;-128.00;-1.00;-1.00;106765;1254;1012992;-59
2023/11/11 02:50:20;;;;;;;6.00;5.00;;;;;;;-128.00;-1.00;-1.00;106762;1254;1002993;-58
2023/11/11 02:52:48;;;;;;;5.50;4.90;;;;;;;-128.00;-1.00;-1.00;106752;1253;1002319;-58
2023/11/11 02:55:18;;;;;;;8.60;4.90;;;;;;;-128.00;-1.00;-1.00;106850;1254;1002524;-58
2023/11/11 02:57:46;;;;;;;5.00;4.50;;;;;;;-128.00;-1.00;-1.00;106712;1249;1013228;-58
2023/11/11 03:00:13;;;;;;;6.40;4.90;;;;;;;-128.00;-1.00;-1.00;107013;1249;1002466;-58
2023/11/11 03:02:41;;;;;;;7.40;5.50;;;;;;;-128.00;-1.00;-1.00;107023;1250;1002615;-59
2023/11/11 03:05:09;;;;;;;9.30;5.40;;;;;;;-128.00;-1.00;-1.00;106681;1251;1001990;-59
2023/11/11 03:07:36;;;;;;;11.50;7.70;;;;;;;-128.00;-1.00;-1.00;106956;1251;1002520;-61
2023/11/11 03:10:05;;;;;;;5.20;4.40;;;;;;;-128.00;-1.00;-1.00;106542;1251;1002322;-61
2023/11/11 03:12:33;;;;;;;7.50;6.60;;;;;;;-128.00;-1.00;-1.00;106597;1251;1012985;-62
2023/11/11 03:15:01;;;;;;;12.60;6.40;;;;;;;-128.00;-1.00;-1.00;106558;1254;1003123;-61
2023/11/11 03:17:30;;;;;;;9.20;4.70;;;;;;;-128.00;-1.00;-1.00;106695;1251;1003083;-62
2023/11/11 03:19:58;;;;;;;7.70;6.50;;;;;;;-128.00;-1.00;-1.00;106806;1251;1012730;-58
2023/11/11 03:22:26;;;;;;;;;;;;;;;-128.00;-1.00;-1.00;106605;1251;1013342;-60
2023/11/11 03:24:54;;;;;;;6.40;5.20;;;;;;;-128.00;-1.00;-1.00;106563;1251;1002475;-58
2023/11/11 03:27:21;;;;;;;7.40;5.40;;;;;;;-128.00;-1.00;-1.00;106846;1251;1002128;-61
2023/11/11 03:29:49;;;;;;;9.10;6.00;;;;;;;-128.00;-1.00;-1.00;106773;1251;1002209;-61
2023/11/11 03:32:16;;;;;;;8.00;5.70;;;;;;;-128.00;-1.00;-1.00;106947;1251;1001961;-60
2023/11/11 03:34:44;;;;;;;9.70;6.00;;;;;;;-128.00;-1.00;-1.00;106850;1254;1002366;-58
2023/11/11 03:37:11;;;;;;;9.40;6.20;;;;;;;-128.00;-1.00;-1.00;106817;1251;1002517;-58
2023/11/11 03:39:39;;;;;;;8.00;5.20;;;;;;;-128.00;-1.00;-1.00;106813;1251;1002429;-59
2023/11/11 03:42:07;;;;;;;9.10;6.60;;;;;;;-128.00;-1.00;-1.00;106901;1251;1002320;-61
2023/11/11 03:44:34;;;;;;;8.10;5.60;;;;;;;-128.00;-1.00;-1.00;106838;1251;1001973;-62
2023/11/11 03:47:02;;;;;;;6.70;5.70;;;;;;;-128.00;-1.00;-1.00;106888;1251;1002428;-61
2023/11/11 03:49:30;;;;;;;7.40;5.20;;;;;;;-128.00;-1.00;-1.00;106564;1251;1002538;-62
2023/11/11 03:51:58;;;;;;;10.10;5.10;;;;;;;-128.00;-1.00;-1.00;106958;1251;1002245;-59
2023/11/11 03:54:26;;;;;;;9.30;5.90;;;;;;;-128.00;-1.00;-1.00;106869;1251;1011268;-59
2023/11/11 03:56:53;;;;;;;7.10;6.40;;;;;;;-128.00;-1.00;-1.00;106946;1251;1002533;-59
2023/11/11 03:59:21;;;;;;;6.60;5.30;;;;;;;-128.00;-1.00;-1.00;106820;1254;1012597;-57
2023/11/11 04:01:51;;;;;;;9.30;6.00;;;;;;;-128.00;-1.00;-1.00;106835;1251;1002396;-61
2023/11/11 04:04:19;;;;;;;8.20;6.70;;;;;;;-128.00;-1.00;-1.00;106866;1251;1010495;-58
2023/11/11 04:06:47;;;;;;;6.50;4.50;;;;;;;-128.00;-1.00;-1.00;106916;1251;1002520;-62
2023/11/11 04:09:15;;;;;;;8.70;6.20;;;;;;;-128.00;-1.00;-1.00;106514;1251;1001856;-61
2023/11/11 04:11:42;;;;;;;6.00;5.10;;;;;;;-128.00;-1.00;-1.00;106951;1253;1002221;-60
2023/11/11 04:14:10;;;;;;;7.70;5.70;;;;;;;-128.00;-1.00;-1.00;106694;1251;1002187;-62
2023/11/11 04:16:37;;;;;;;8.40;5.90;;;;;;;-128.00;-1.00;-1.00;106744;1251;1002564;-59
2023/11/11 04:19:05;;;;;;;9.80;5.40;;;;;;;-128.00;-1.00;-1.00;106559;1254;1002724;-58
2023/11/11 04:21:32;;;;;;;9.10;6.60;;;;;;;-128.00;-1.00;-1.00;106772;1251;1002478;-57
2023/11/11 04:24:00;;;;;;;6.80;5.80;;;;;;;-128.00;-1.00;-1.00;106919;1251;1002600;-57
2023/11/11 04:26:28;;;;;;;7.20;6.30;;;;;;;-128.00;-1.00;-1.00;106935;1251;1002584;-57
2023/11/11 04:28:55;;;;;;;8.20;5.50;;;;;;;-128.00;-1.00;-1.00;106913;1251;1001865;-57
2023/11/11 04:31:23;;;;;;;8.70;6.20;;;;;;;-128.00;-1.00;-1.00;106934;1251;1002536;-58
2023/11/11 04:33:51;;;;;;;5.80;5.30;;;;;;;-128.00;-1.00;-1.00;106706;1254;1012811;-57
2023/11/11 04:36:18;;;;;;;8.00;6.50;;;;;;;-128.00;-1.00;-1.00;106866;1251;1002241;-58
2023/11/11 04:38:46;;;;;;;10.90;4.50;;;;;;;-128.00;-1.00;-1.00;106881;1251;1002269;-59
2023/11/11 04:41:15;;;;;;;6.90;5.70;;;;;;;-128.00;-1.00;-1.00;106595;1251;1002059;-58
2023/11/11 04:43:42;;;;;;;7.90;6.30;;;;;;;-128.00;-1.00;-1.00;106885;1251;1010183;-59
2023/11/11 04:46:10;;;;;;;7.10;5.70;;;;;;;-128.00;-1.00;-1.00;106548;1251;1002795;-60
2023/11/11 04:48:38;;;;;;;9.80;6.20;;;;;;;-128.00;-1.00;-1.00;106769;1256;1012180;-59
2023/11/11 04:51:05;;;;;;;9.30;5.70;;;;;;;-128.00;-1.00;-1.00;106897;1251;1002075;-58
2023/11/11 04:53:33;;;;;;;6.80;5.80;;;;;;;-128.00;-1.00;-1.00;106889;1254;1002195;-58
2023/11/11 04:56:01;;;;;;;6.20;5.00;;;;;;;-128.00;-1.00;-1.00;106955;1251;1002879;-59
2023/11/11 04:58:29;;;;;;;6.20;4.70;;;;;;;-128.00;-1.00;-1.00;106842;1251;1002877;-58
2023/11/11 05:00:56;;;;;;;6.50;5.10;;;;;;;-128.00;-1.00;-1.00;106838;1251;1002417;-58
2023/11/11 05:03:25;;;;;;;6.90;3.60;;;;;;;-128.00;-1.00;-1.00;106493;1251;1002582;-59
2023/11/11 05:05:53;;;;;;;6.40;5.40;;;;;;;-128.00;-1.00;-1.00;106810;1251;1010342;-58
2023/11/11 05:08:20;;;;;;;5.70;4.80;;;;;;;-128.00;-1.00;-1.00;106889;1250;1002401;-60
2023/11/11 05:10:48;;;;;;;6.80;5.90;;;;;;;-128.00;-1.00;-1.00;106992;1250;1002639;-59
2023/11/11 05:13:19;;;;;;;6.50;4.20;;;;;;;-128.00;-1.00;-1.00;107001;1250;1002369;-59
2023/11/11 05:15:47;;;;;;;5.40;4.90;;;;;;;-128.00;-1.00;-1.00;106894;1250;1012678;-61
2023/11/11 05:18:15;;;;;;;6.90;6.20;;;;;;;-128.00;-1.00;-1.00;106929;1250;1002452;-59
2023/11/11 05:20:42;;;;;;;6.10;5.00;;;;;;;-128.00;-1.00;-1.00;106987;1250;1001797;-58
2023/11/11 05:23:10;;;;;;;9.40;5.00;;;;;;;-128.00;-1.00;-1.00;106946;1250;1002103;-60
2023/11/11 05:25:38;;;;;;;5.10;4.50;;;;;;;-128.00;-1.00;-1.00;106904;1250;1002462;-59
2023/11/11 05:28:06;;;;;;;6.10;5.50;;;;;;;-128.00;-1.00;-1.00;106947;1252;1001755;-59
2023/11/11 05:30:33;;;;;;;7.70;4.70;;;;;;;-128.00;-1.00;-1.00;106987;1250;1002094;-61
2023/11/11 05:33:01;;;;;;;7.10;4.60;;;;;;;-128.00;-1.00;-1.00;106926;1250;1002243;-58
2023/11/11 05:35:30;;;;;;;5.90;4.60;;;;;;;-128.00;-1.00;-1.00;107006;1250;1012185;-60
2023/11/11 05:37:59;;;;;;;21.00;6.10;;;;;;;-128.00;-1.00;-1.00;106935;1250;1012287;-61
2023/11/11 05:40:27;;;;;;;;;;;;;;;-128.00;-1.00;-1.00;107000;1250;1012113;-60
2023/11/11 05:42:56;;;;;;;6.90;5.60;;;;;;;-128.00;-1.00;-1.00;106734;1250;1010403;-58
2023/11/11 05:45:24;;;;;;;6.00;4.70;;;;;;;-128.00;-1.00;-1.00;106942;1250;1010812;-61
2023/11/11 05:47:51;;;;;;;5.90;4.00;;;;;;;-128.00;-1.00;-1.00;106949;1250;1002144;-61
2023/11/11 05:50:20;;;;;;;6.00;5.40;;;;;;;-128.00;-1.00;-1.00;106851;1250;1002624;-58
2023/11/11 05:52:49;;;;;;;6.10;4.80;;;;;;;-128.00;-1.00;-1.00;106942;1250;1013927;-57
2023/11/11 05:55:17;;;;;;;7.70;5.40;;;;;;;-128.00;-1.00;-1.00;106941;1250;1010698;-58
2023/11/11 05:57:44;;;;;;;7.70;5.00;;;;;;;-128.00;-1.00;-1.00;106994;1250;1002305;-63
2023/11/11 06:00:13;;;;;;;6.20;5.10;;;;;;;-128.00;-1.00;-1.00;106975;1250;1001867;-59
2023/11/11 06:02:41;;;;;;;5.80;5.20;;;;;;;-128.00;-1.00;-1.00;106942;1252;1011971;-58
2023/11/11 06:05:09;;;;;;;10.60;4.70;;;;;;;-128.00;-1.00;-1.00;106930;1250;1002516;-59
2023/11/11 06:07:37;;;;;;;4.90;4.50;;;;;;;-128.00;-1.00;-1.00;106933;1250;1002446;-58
2023/11/11 06:10:07;;;;;;;6.80;5.00;;;;;;;-128.00;-1.00;-1.00;106939;1251;1002474;-58
2023/11/11 06:12:35;;;;;;;6.20;5.30;;;;;;;-128.00;-1.00;-1.00;106830;1251;1012636;-57
2023/11/11 06:15:08;;;;;;;10.30;6.60;;;;;;;-128.00;-1.00;-1.00;106827;1251;1002328;-58
2023/11/11 06:17:36;;;;;;;6.80;5.70;;;;;;;-128.00;-1.00;-1.00;106707;1251;1012890;-59
2023/11/11 06:20:05;;;;;;;5.80;5.20;;;;;;;-128.00;-1.00;-1.00;106854;1251;1002988;-57
2023/11/11 06:22:32;;;;;;;6.50;5.80;;;;;;;-128.00;-1.00;-1.00;106853;1251;1011526;-58
2023/11/11 06:25:01;;;;;;;8.30;5.20;;;;;;;-128.00;-1.00;-1.00;106818;1251;1002277;-57
2023/11/11 06:27:28;;;;;;;10.30;7.30;;;;;;;-128.00;-1.00;-1.00;106789;1253;1012490;-59
2023/11/11 06:29:57;;;;;;;12.30;8.50;;;;;;;-128.00;-1.00;-1.00;106803;1251;1002003;-57
2023/11/11 06:32:25;;;;;;;5.60;4.80;;;;;;;-128.00;-1.00;-1.00;106835;1251;1009920;-57
2023/11/11 06:34:53;;;;;;;8.40;5.80;;;;;;;-128.00;-1.00;-1.00;106809;1251;1011247;-58
2023/11/11 06:37:20;;;;;;;6.50;4.10;;;;;;;-128.00;-1.00;-1.00;106863;1254;1002123;-57
2023/11/11 06:39:48;;;;;;;5.90;4.50;;;;;;;-128.00;-1.00;-1.00;106770;1251;1002615;-57
2023/11/11 06:42:15;;;;;;;13.50;9.40;;;;;;;-128.00;-1.00;-1.00;106833;1251;1002991;-57
2023/11/11 06:44:43;;;;;;;9.70;7.50;;;;;;;-128.00;-1.00;-1.00;106810;1251;1002212;-58
2023/11/11 06:47:14;;;;;;;10.10;7.50;;;;;;;-128.00;-1.00;-1.00;106775;1251;1002725;-57
2023/11/11 06:49:42;;;;;;;10.20;6.70;;;;;;;-128.00;-1.00;-1.00;106820;1251;1012623;-57
2023/11/11 06:52:10;;;;;;;8.50;7.10;;;;;;;-128.00;-1.00;-1.00;106802;1251;1002162;-59
2023/11/11 06:54:38;;;;;;;12.00;8.40;;;;;;;-128.00;-1.00;-1.00;106460;1256;1012082;-58
2023/11/11 06:57:05;;;;;;;7.70;6.90;;;;;;;-128.00;-1.00;-1.00;106611;1256;1002254;-58
2023/11/11 06:59:33;;;;;;;11.40;6.40;;;;;;;-128.00;-1.00;-1.00;106358;1256;1002662;-57
2023/11/11 07:02:00;;;;;;;8.40;6.80;;;;;;;-128.00;-1.00;-1.00;106461;1256;1002667;-58
2023/11/11 07:04:28;;;;;;;12.00;6.30;;;;;;;-128.00;-1.00;-1.00;106693;1256;1002597;-58
2023/11/11 07:06:57;;;;;;;11.20;8.30;;;;;;;-128.00;-1.00;-1.00;106502;1255;1002554;-58
2023/11/11 07:09:24;;;;;;;9.60;8.00;;;;;;;-128.00;-1.00;-1.00;106650;1256;1009582;-57
2023/11/11 07:11:52;;;;;;;7.80;6.40;;;;;;;-128.00;-1.00;-1.00;106385;1256;1002866;-57
2023/11/11 07:14:19;;;;;;;10.80;6.20;;;;;;;-128.00;-1.00;-1.00;106322;1256;1002557;-58
2023/11/11 07:16:47;;;;;;;20.60;11.40;;;;;;;-128.00;-1.00;-1.00;106445;1256;1002208;-58
2023/11/11 07:19:14;;;;;;;23.40;12.70;;;;;;;-128.00;-1.00;-1.00;106487;1256;1002217;-58
2023/11/11 07:21:42;;;;;;;18.20;11.90;;;;;;;-128.00;-1.00;-1.00;106432;1256;1002077;-58
2023/11/11 07:24:10;;;;;;;18.90;10.60;;;;;;;-128.00;-1.00;-1.00;106441;1256;1002130;-58
2023/11/11 07:26:41;;;;;;;11.00;8.30;;;;;;;-128.00;-1.00;-1.00;106882;1250;1002328;-58
2023/11/11 07:29:09;;;;;;;12.40;8.10;;;;;;;-128.00;-1.00;-1.00;106992;1250;1012486;-57
2023/11/11 07:31:38;;;;;;;10.00;7.40;;;;;;;-128.00;-1.00;-1.00;106981;1250;1002367;-58
2023/11/11 07:34:08;;;;;;;12.10;8.80;;;;;;;-128.00;-1.00;-1.00;106949;1250;1009924;-58
2023/11/11 07:36:35;;;;;;;10.30;8.10;;;;;;;-128.00;-1.00;-1.00;106913;1250;1010700;-58
2023/11/11 07:39:03;;;;;;;12.00;8.20;;;;;;;-128.00;-1.00;-1.00;106984;1250;1002491;-58
2023/11/11 07:41:31;;;;;;;11.70;7.80;;;;;;;-128.00;-1.00;-1.00;106991;1250;1002307;-60
2023/11/11 07:44:04;;;;;;;10.40;8.30;;;;;;;-128.00;-1.00;-1.00;106971;1250;1002469;-59
2023/11/11 07:46:32;;;;;;;9.20;8.00;;;;;;;-128.00;-1.00;-1.00;106941;1250;1010308;-59
2023/11/11 07:49:00;;;;;;;13.70;10.50;;;;;;;-128.00;-1.00;-1.00;106971;1250;1011714;-59
2023/11/11 07:51:28;;;;;;;14.50;9.20;;;;;;;-128.00;-1.00;-1.00;106993;1250;1002524;-59
2023/11/11 07:53:56;;;;;;;13.80;9.50;;;;;;;-128.00;-1.00;-1.00;106751;1250;1002556;-59
2023/11/11 07:56:24;;;;;;;12.30;8.80;;;;;;;-128.00;-1.00;-1.00;106710;1251;1002268;-59
2023/11/11 07:58:53;;;;;;;12.30;9.00;;;;;;;-128.00;-1.00;-1.00;106679;1250;1010679;-59
2023/11/11 08:01:21;;;;;;;;;;;;;;;-128.00;-1.00;-1.00;107038;1250;1011767;-60
2023/11/11 08:03:49;;;;;;;11.40;8.00;;;;;;;-128.00;-1.00;-1.00;106958;1251;1013019;-58
2023/11/11 08:06:17;;;;;;;10.70;7.40;;;;;;;-128.00;-1.00;-1.00;106900;1251;1002386;-59
2023/11/11 08:08:44;;;;;;;11.90;9.30;;;;;;;-128.00;-1.00;-1.00;106953;1251;1012967;-59
2023/11/11 08:11:14;;;;;;;17.30;10.10;;;;;;;-128.00;-1.00;-1.00;106774;1251;1002637;-57
2023/11/11 08:13:41;;;;;;;16.10;11.90;;;;;;;-128.00;-1.00;-1.00;106867;1251;1011147;-59
2023/11/11 08:16:11;;;;;;;14.80;10.20;;;;;;;-128.00;-1.00;-1.00;106807;1251;1002587;-58
2023/11/11 08:18:39;;;;;;;12.40;9.40;;;;;;;-128.00;-1.00;-1.00;106820;1254;1013054;-59
2023/11/11 08:21:19;;;;;;;10.40;8.80;;;;;;;-128.00;-1.00;-1.00;106782;1251;1012213;-58
2023/11/11 08:23:47;;;;;;;27.40;11.40;;;;;;;-128.00;-1.00;-1.00;106664;1251;1010082;-59
2023/11/11 08:26:14;;;;;;;12.60;9.50;;;;;;;-128.00;-1.00;-1.00;106853;1251;1002751;-58
2023/11/11 08:28:42;;;;;;;12.50;9.90;;;;;;;-128.00;-1.00;-1.00;106696;1253;1003060;-58
2023/11/11 08:31:09;;;;;;;14.60;10.20;;;;;;;-128.00;-1.00;-1.00;106675;1254;1002779;-58
2023/11/11 08:33:37;;;;;;;14.60;10.20;;;;;;;-128.00;-1.00;-1.00;106706;1253;1002393;-57
2023/11/11 08:36:05;;;;;;;15.60;10.20;;;;;;;-128.00;-1.00;-1.00;106746;1253;1002128;-58
2023/11/11 08:38:32;;;;;;;15.50;10.30;;;;;;;-128.00;-1.00;-1.00;106756;1253;1002929;-56
2023/11/11 08:41:01;;;;;;;15.20;11.30;;;;;;;-128.00;-1.00;-1.00;106724;1253;1002837;-57
2023/11/11 08:43:29;;;;;;;20.50;13.10;;;;;;;-128.00;-1.00;-1.00;106665;1253;1012639;-57
2023/11/11 08:45:57;;;;;;;23.40;15.00;;;;;;;-128.00;-1.00;-1.00;106739;1253;1002717;-57
2023/11/11 08:48:24;;;;;;;21.00;14.60;;;;;;;-128.00;-1.00;-1.00;106677;1253;1002360;-57
2023/11/11 08:50:55;;;;;;;21.70;14.40;;;;;;;-128.00;-1.00;-1.00;106484;1253;1002144;-57
2023/11/11 08:53:23;;;;;;;17.30;13.30;;;;;;;-128.00;-1.00;-1.00;106700;1254;1012840;-57
2023/11/11 08:55:50;;;;;;;17.40;13.40;;;;;;;-128.00;-1.00;-1.00;106589;1254;1002961;-59
2023/11/11 08:58:18;;;;;;;15.10;11.70;;;;;;;-128.00;-1.00;-1.00;106504;1254;1002430;-58
2023/11/11 09:00:46;;;;;;;12.90;10.10;;;;;;;-128.00;-1.00;-1.00;106603;1254;1002163;-58
2023/11/11 09:03:14;;;;;;;15.70;10.50;;;;;;;-128.00;-1.00;-1.00;106576;1253;1010755;-58
2023/11/11 09:05:41;;;;;;;13.80;10.30;;;;;;;-128.00;-1.00;-1.00;106627;1259;1002094;-58
2023/11/11 09:08:09;;;;;;;15.10;11.00;;;;;;;-128.00;-1.00;-1.00;106463;1254;1002077;-59
2023/11/11 09:10:36;;;;;;;10.20;8.50;;;;;;;-128.00;-1.00;-1.00;106567;1254;1002239;-58
2023/11/11 09:13:05;;;;;;;14.50;11.30;;;;;;;-128.00;-1.00;-1.00;106542;1254;1002714;-58
2023/11/11 09:15:33;;;;;;;;;;;;;;;-128.00;-1.00;-1.00;106483;1254;1011399;-59
2023/11/11 09:18:01;;;;;;;13.80;11.10;;;;;;;-128.00;-1.00;-1.00;106599;1254;1002487;-60
2023/11/11 09:20:29;;;;;;;16.20;11.50;;;;;;;-128.00;-1.00;-1.00;106579;1254;1002387;-58
2023/11/11 09:22:56;;;;;;;14.50;11.80;;;;;;;-128.00;-1.00;-1.00;106571;1254;1002116;-58
2023/11/11 09:25:24;;;;;;;14.00;10.80;;;;;;;-128.00;-1.00;-1.00;106681;1253;1002274;-60
2023/11/11 09:27:53;;;;;;;11.50;8.10;;;;;;;-128.00;-1.00;-1.00;106611;1253;1002476;-58
2023/11/11 09:30:22;;;;;;;13.80;9.70;;;;;;;-128.00;-1.00;-1.00;106800;1253;1013461;-59
2023/11/11 09:32:53;;;;;;;13.00;9.50;;;;;;;-128.00;-1.00;-1.00;106894;1252;1012186;-58
2023/11/11 09:35:21;;;;;;;9.90;7.60;;;;;;;-128.00;-1.00;-1.00;106563;1253;1013438;-58
2023/11/11 09:37:49;;;;;;;12.40;10.30;;;;;;;-128.00;-1.00;-1.00;106861;1253;1002394;-58
2023/11/11 09:40:16;;;;;;;17.00;11.10;;;;;;;-128.00;-1.00;-1.00;106797;1252;1002160;-58
2023/11/11 09:42:44;;;;;;;13.90;9.80;;;;;;;-128.00;-1.00;-1.00;106599;1253;1002445;-58
2023/11/11 09:45:14;;;;;;;11.20;8.90;;;;;;;-128.00;-1.00;-1.00;106701;1253;1002626;-58
2023/11/11 09:47:44;;;;;;;11.20;8.60;;;;;;;-128.00;-1.00;-1.00;106643;1252;1012792;-58
2023/11/11 09:50:14;;;;;;;12.40;9.20;;;;;;;-128.00;-1.00;-1.00;106634;1256;1002056;-58
2023/11/11 09:52:43;;;;;;;10.00;7.50;;;;;;;-128.00;-1.00;-1.00;106379;1256;1010820;-59
2023/11/11 09:55:11;;;;;;;9.90;8.40;;;;;;;-128.00;-1.00;-1.00;106549;1256;1012435;-58
2023/11/11 09:57:39;;;;;;;12.30;9.80;;;;;;;-128.00;-1.00;-1.00;106417;1255;1002562;-58
2023/11/11 10:00:11;;;;;;;12.70;10.00;;;;;;;-128.00;-1.00;-1.00;106469;1256;1012095;-58
2023/11/11 10:02:39;;;;;;;12.50;9.60;;;;;;;-128.00;-1.00;-1.00;106484;1256;1009728;-58
2023/11/11 10:05:09;;;;;;;11.40;8.00;;;;;;;-128.00;-1.00;-1.00;106577;1254;1002209;-58
2023/11/11 10:07:37;;;;;;;11.30;9.70;;;;;;;-128.00;-1.00;-1.00;106565;1254;1012573;-58
2023/11/11 10:10:08;;;;;;;11.00;9.40;;;;;;;-128.00;-1.00;-1.00;106442;1258;1002747;-58
2023/11/11 10:12:39;;;;;;;14.00;9.40;;;;;;;-128.00;-1.00;-1.00;106270;1259;1013759;-58
2023/11/11 10:15:08;;;;;;;11.50;9.00;;;;;;;-128.00;-1.00;-1.00;106240;1259;1009936;-57
2023/11/11 10:17:38;;;;;;;;;;;;;;;-128.00;-1.00;-1.00;106147;1259;1012572;-57
2023/11/11 10:20:08;;;;;;;12.70;8.50;;;;;;;-128.00;-1.00;-1.00;106318;1258;1012726;-57
2023/11/11 10:22:38;;;;;;;10.80;8.90;;;;;;;-128.00;-1.00;-1.00;106423;1256;1012795;-57
2023/11/11 10:25:05;;;;;;;11.00;8.50;;;;;;;-128.00;-1.00;-1.00;106453;1256;1012285;-57
2023/11/11 10:27:33;;;;;;;11.50;8.80;;;;;;;-128.00;-1.00;-1.00;106324;1256;1002107;-57
2023/11/11 10:30:01;;;;;;;12.80;10.30;;;;;;;-128.00;-1.00;-1.00;106388;1256;1001948;-58
2023/11/11 10:32:29;;;;;;;9.20;8.00;;;;;;;-128.00;-1.00;-1.00;106291;1261;1002576;-58
2023/11/11 10:34:57;;;;;;;11.40;10.20;;;;;;;-128.00;-1.00;-1.00;106268;1260;1012788;-57
2023/11/11 10:37:25;;;;;;;14.20;9.20;;;;;;;-128.00;-1.00;-1.00;106482;1256;1002458;-62
2023/11/11 10:39:52;;;;;;;12.20;9.50;;;;;;;-128.00;-1.00;-1.00;106413;1256;1002278;-57
2023/11/11 10:42:20;;;;;;;12.20;9.30;;;;;;;-128.00;-1.00;-1.00;106494;1256;1002314;-63
2023/11/11 10:44:47;;;;;;;11.50;8.40;;;;;;;-128.00;-1.00;-1.00;106253;1256;1002751;-60
2023/11/11 10:47:15;;;;;;;11.70;9.20;;;;;;;-128.00;-1.00;-1.00;106399;1256;1002120;-60
2023/11/11 10:49:42;;;;;;;9.20;7.70;;;;;;;-128.00;-1.00;-1.00;106510;1253;1002102;-59
2023/11/11 10:52:10;;;;;;;12.80;9.40;;;;;;;-128.00;-1.00;-1.00;106779;1253;1002291;-60
2023/11/11 10:54:37;;;;;;;11.20;8.20;;;;;;;-128.00;-1.00;-1.00;106858;1252;1002836;-58
2023/11/11 10:57:05;;;;;;;9.30;7.80;;;;;;;-128.00;-1.00;-1.00;106806;1253;1002483;-59
2023/11/11 10:59:32;;;;;;;12.40;9.90;;;;;;;-128.00;-1.00;-1.00;106794;1256;1002249;-58
2023/11/11 11:02:01;;;;;;;12.50;8.70;;;;;;;-128.00;-1.00;-1.00;106596;1252;1002490;-58
2023/11/11 11:04:28;;;;;;;10.20;7.30;;;;;;;-128.00;-1.00;-1.00;106817;1252;1010004;-59
2023/11/11 11:07:03;;;;;;;9.30;7.70;;;;;;;-128.00;-1.00;-1.00;106662;1252;1002653;-62
2023/11/11 11:10:02;;;;;;;11.30;8.60;;;;;;;-128.00;-1.00;-1.00;106881;1253;1013634;-58
2023/11/11 11:13:02;;;;;;;8.80;6.50;;;;;;;-128.00;-1.00;-1.00;106716;1253;1011563;-61
2023/11/11 11:15:44;;;;;;;9.50;7.00;;;;;;;-128.00;-1.00;-1.00;106273;1259;1013433;-59
2023/11/11 11:18:12;;;;;;;11.00;8.70;;;;;;;-128.00;-1.00;-1.00;106329;1259;1009904;-59